createdAt,value
2018-05-13T00:01:37.512Z,10.69
2018-05-13T00:04:06.613Z,10.51
2018-05-13T00:06:35.692Z,10.38
2018-05-13T00:09:04.846Z,10.35
2018-05-13T00:11:33.899Z,10.33
2018-05-13T00:14:02.952Z,10.34
2018-05-13T00:16:32.304Z,10.38
2018-05-13T00:19:01.452Z,10.46
2018-05-13T00:21:30.647Z,10.51
2018-05-13T00:23:59.768Z,10.47
2018-05-13T00:26:28.966Z,10.54
2018-05-13T00:28:57.931Z,10.76
2018-05-13T00:31:26.932Z,10.78
2018-05-13T00:33:56.211Z,10.86
2018-05-13T00:36:25.164Z,10.93
2018-05-13T00:38:54.429Z,11.02
2018-05-13T00:41:23.648Z,11.19
2018-05-13T00:43:52.822Z,11.24
2018-05-13T00:46:22.109Z,11.26
2018-05-13T00:48:51.216Z,11.26
2018-05-13T00:51:20.454Z,11.32
2018-05-13T00:53:49.477Z,11.38
2018-05-13T00:56:18.456Z,11.41
2018-05-13T00:58:47.660Z,11.41
2018-05-13T01:01:16.615Z,11.39
2018-05-13T01:03:45.670Z,11.38
2018-05-13T01:06:15.065Z,11.35
2018-05-13T01:08:44.375Z,11.34
2018-05-13T01:11:16.133Z,11.31
2018-05-13T01:13:45.290Z,11.31
2018-05-13T01:16:14.698Z,11.32
2018-05-13T01:18:43.898Z,11.26
2018-05-13T01:21:13.177Z,11.26
2018-05-13T01:23:45.553Z,11.24
2018-05-13T01:26:15.016Z,11.16
2018-05-13T01:28:44.124Z,11.14
2018-05-13T01:31:13.196Z,11.08
2018-05-13T01:33:42.605Z,11.12
2018-05-13T01:36:12.009Z,11.00
2018-05-13T01:38:41.102Z,11.00
2018-05-13T01:41:10.253Z,11.02
2018-05-13T01:43:39.337Z,10.93
2018-05-13T01:46:08.412Z,10.95
2018-05-13T01:48:37.199Z,10.93
2018-05-13T01:51:06.400Z,10.97
2018-05-13T01:53:35.683Z,10.85
2018-05-13T01:56:04.805Z,11.02
2018-05-13T01:58:34.636Z,11.06
2018-05-13T02:01:03.947Z,10.98
2018-05-13T02:03:33.338Z,11.12
2018-05-13T02:06:02.580Z,11.20
2018-05-13T02:08:31.780Z,11.26
2018-05-13T02:11:00.908Z,11.23
2018-05-13T02:13:30.064Z,11.28
2018-05-13T02:15:59.040Z,11.32
2018-05-13T02:18:28.100Z,11.33
2018-05-13T02:20:57.296Z,11.27
2018-05-13T02:23:26.464Z,11.26
2018-05-13T02:25:55.779Z,11.26
2018-05-13T02:28:25.145Z,11.28
2018-05-13T02:30:54.424Z,11.26
2018-05-13T02:33:23.517Z,11.22
2018-05-13T02:35:52.917Z,11.19
2018-05-13T02:38:22.026Z,11.25
2018-05-13T02:40:51.220Z,11.26
2018-05-13T02:43:20.614Z,11.24
2018-05-13T02:45:49.633Z,11.16
2018-05-13T02:48:19.070Z,11.08
2018-05-13T02:50:48.058Z,11.16
2018-05-13T02:53:17.572Z,10.99
2018-05-13T02:55:46.727Z,11.05
2018-05-13T02:58:15.775Z,10.97
2018-05-13T03:00:45.007Z,10.95
2018-05-13T03:03:14.267Z,10.90
2018-05-13T03:05:43.476Z,10.89
2018-05-13T03:08:12.642Z,10.92
2018-05-13T03:10:41.837Z,10.90
2018-05-13T03:13:10.804Z,10.98
2018-05-13T03:15:40.237Z,10.91
2018-05-13T03:18:10.068Z,10.95
2018-05-13T03:20:39.116Z,11.06
2018-05-13T03:23:09.017Z,10.98
2018-05-13T03:25:38.150Z,11.04
2018-05-13T03:28:07.287Z,11.12
2018-05-13T03:30:36.539Z,11.18
2018-05-13T03:33:05.705Z,11.28
2018-05-13T03:35:34.941Z,11.33
2018-05-13T03:38:03.933Z,11.34
2018-05-13T03:40:33.104Z,11.50
2018-05-13T03:43:02.172Z,11.49
2018-05-13T03:45:31.516Z,11.44
2018-05-13T03:48:00.700Z,11.46
2018-05-13T03:50:29.936Z,11.58
2018-05-13T03:52:59.262Z,11.61
2018-05-13T03:55:28.284Z,11.53
2018-05-13T03:57:57.359Z,11.29
2018-05-13T04:00:26.720Z,11.10
2018-05-13T04:02:56.031Z,11.17
2018-05-13T04:05:25.117Z,11.15
2018-05-13T04:11:13.684Z,11.02
2018-05-13T04:13:54.385Z,10.94
2018-05-13T04:16:23.499Z,10.94
2018-05-13T04:18:52.480Z,11.02
2018-05-13T04:21:21.898Z,11.08
2018-05-13T04:23:51.024Z,11.28
2018-05-13T04:26:20.424Z,11.50
2018-05-13T04:28:49.664Z,11.54
2018-05-13T04:31:18.795Z,11.70
2018-05-13T04:33:48.054Z,11.71
2018-05-13T04:36:17.201Z,12.00
2018-05-13T04:38:46.432Z,11.93
2018-05-13T04:41:15.924Z,11.96
2018-05-13T04:43:45.096Z,12.00
2018-05-13T04:46:14.264Z,12.18
2018-05-13T04:48:43.677Z,12.26
2018-05-13T04:51:12.895Z,12.32
2018-05-13T04:53:42.736Z,12.32
2018-05-13T04:56:12.091Z,12.45
2018-05-13T04:58:41.307Z,12.71
2018-05-13T05:01:10.734Z,12.95
2018-05-13T05:03:39.712Z,13.04
2018-05-13T05:06:08.888Z,13.07
2018-05-13T05:08:38.229Z,13.24
2018-05-13T05:11:07.370Z,13.22
2018-05-13T05:13:36.541Z,13.24
2018-05-13T05:16:05.603Z,13.36
2018-05-13T05:18:34.889Z,13.39
2018-05-13T05:21:04.199Z,13.24
2018-05-13T05:23:33.573Z,13.25
2018-05-13T05:26:02.687Z,13.48
2018-05-13T05:28:32.122Z,13.44
2018-05-13T05:31:01.326Z,13.56
2018-05-13T05:33:30.968Z,13.59
2018-05-13T05:36:00.275Z,13.72
2018-05-13T05:38:29.372Z,13.79
2018-05-13T05:40:58.683Z,13.90
2018-05-13T05:43:28.173Z,14.05
2018-05-13T05:45:57.395Z,14.43
2018-05-13T05:48:26.582Z,14.05
2018-05-13T05:50:55.688Z,14.24
2018-05-13T05:53:24.865Z,14.15
2018-05-13T05:55:53.982Z,14.18
2018-05-13T05:58:23.130Z,14.37
2018-05-13T06:00:52.373Z,14.61
2018-05-13T06:03:21.554Z,14.66
2018-05-13T06:05:50.748Z,14.82
2018-05-13T06:08:20.261Z,14.82
2018-05-13T06:10:49.334Z,14.84
2018-05-13T06:13:18.483Z,15.02
2018-05-13T06:15:47.777Z,15.15
2018-05-13T06:18:17.076Z,15.05
2018-05-13T06:20:46.197Z,15.16
2018-05-13T06:23:15.694Z,15.25
2018-05-13T06:25:44.620Z,15.52
2018-05-13T06:28:13.568Z,15.39
2018-05-13T06:30:42.848Z,15.74
2018-05-13T06:33:11.926Z,15.74
2018-05-13T06:35:41.011Z,15.93
2018-05-13T06:38:10.242Z,15.85
2018-05-13T06:40:39.872Z,15.81
2018-05-13T06:43:09.009Z,15.97
2018-05-13T06:45:38.236Z,16.33
2018-05-13T06:48:08.085Z,16.46
2018-05-13T06:50:37.249Z,16.59
2018-05-13T06:53:06.418Z,16.67
2018-05-13T06:55:35.441Z,16.77
2018-05-13T06:58:04.658Z,16.85
2018-05-13T07:00:33.703Z,16.81
2018-05-13T07:03:02.850Z,17.21
2018-05-13T07:05:32.041Z,16.81
2018-05-13T07:08:01.344Z,17.16
2018-05-13T07:10:30.617Z,17.18
2018-05-13T07:12:59.689Z,17.38
2018-05-13T07:15:28.974Z,17.30
2018-05-13T07:17:58.538Z,17.45
2018-05-13T07:20:28.478Z,17.70
2018-05-13T07:22:57.485Z,17.77
2018-05-13T07:25:26.426Z,17.92
2018-05-13T07:27:55.818Z,18.09
2018-05-13T07:30:24.868Z,18.31
2018-05-13T07:32:54.008Z,18.41
2018-05-13T07:35:23.469Z,18.41
2018-05-13T07:37:52.570Z,18.54
2018-05-13T07:40:21.554Z,18.84
2018-05-13T07:42:50.640Z,18.63
2018-05-13T07:45:19.815Z,18.75
2018-05-13T07:47:49.072Z,19.02
2018-05-13T07:50:18.462Z,19.02
2018-05-13T07:52:47.472Z,19.11
2018-05-13T07:55:16.768Z,19.38
2018-05-13T07:57:45.800Z,19.45
2018-05-13T08:00:15.004Z,19.86
2018-05-13T08:02:44.450Z,19.79
2018-05-13T08:05:13.712Z,20.15
2018-05-13T08:07:42.695Z,19.98
2018-05-13T08:10:11.864Z,19.94
2018-05-13T08:12:41.024Z,20.01
2018-05-13T08:15:10.040Z,20.05
2018-05-13T08:17:39.377Z,20.33
2018-05-13T08:20:08.555Z,20.20
2018-05-13T08:22:37.545Z,20.48
2018-05-13T08:25:06.765Z,20.48
2018-05-13T08:27:36.034Z,20.64
2018-05-13T08:30:04.984Z,20.94
2018-05-13T08:32:34.145Z,20.92
2018-05-13T08:35:03.733Z,20.88
2018-05-13T08:37:32.891Z,21.17
2018-05-13T08:40:02.154Z,21.54
2018-05-13T08:42:31.604Z,21.45
2018-05-13T08:45:00.712Z,21.43
2018-05-13T08:47:29.742Z,21.98
2018-05-13T08:49:59.044Z,22.79
2018-05-13T08:52:28.156Z,22.36
2018-05-13T08:54:57.135Z,22.26
2018-05-13T08:57:26.109Z,21.89
2018-05-13T08:59:55.157Z,21.65
2018-05-13T09:02:24.609Z,22.05
2018-05-13T09:04:53.676Z,21.93
2018-05-13T09:07:22.696Z,22.21
2018-05-13T09:09:51.856Z,22.10
2018-05-13T09:12:20.816Z,22.25
2018-05-13T09:14:49.800Z,22.32
2018-05-13T09:17:18.872Z,23.39
2018-05-13T09:19:47.879Z,24.09
2018-05-13T09:22:16.988Z,23.73
2018-05-13T09:24:45.984Z,24.60
2018-05-13T09:27:15.060Z,24.65
2018-05-13T09:29:44.239Z,24.75
2018-05-13T09:32:13.448Z,24.36
2018-05-13T09:34:42.392Z,25.24
2018-05-13T09:37:11.542Z,24.82
2018-05-13T09:39:40.661Z,25.29
2018-05-13T09:42:09.680Z,25.17
2018-05-13T09:44:38.928Z,24.07
2018-05-13T09:47:08.314Z,23.95
2018-05-13T09:49:37.431Z,24.19
2018-05-13T09:52:06.630Z,23.73
2018-05-13T09:54:35.814Z,23.19
2018-05-13T09:57:04.936Z,23.97
2018-05-13T09:59:34.052Z,24.56
2018-05-13T10:02:03.291Z,24.79
2018-05-13T10:04:32.552Z,25.06
2018-05-13T10:07:01.496Z,25.50
2018-05-13T10:09:31.017Z,25.44
2018-05-13T10:12:00.278Z,25.57
2018-05-13T10:14:29.515Z,24.37
2018-05-13T10:16:58.760Z,24.77
2018-05-13T10:19:27.952Z,24.87
2018-05-13T10:21:56.940Z,24.58
2018-05-13T10:24:25.988Z,24.08
2018-05-13T10:26:55.091Z,23.90
2018-05-13T10:29:24.244Z,25.00
2018-05-13T10:31:53.509Z,25.07
2018-05-13T10:34:22.606Z,24.86
2018-05-13T10:36:51.790Z,25.60
2018-05-13T10:39:20.878Z,25.60
2018-05-13T10:41:50.858Z,26.41
2018-05-13T10:44:21.050Z,25.38
2018-05-13T10:46:50.155Z,25.21
2018-05-13T10:49:19.279Z,24.87
2018-05-13T10:51:48.450Z,26.21
2018-05-13T10:54:17.672Z,26.56
2018-05-13T10:56:46.875Z,26.49
2018-05-13T10:59:16.224Z,26.39
2018-05-13T11:01:45.241Z,27.12
2018-05-13T11:04:14.696Z,27.21
2018-05-13T11:06:44.339Z,25.72
2018-05-13T11:09:13.774Z,25.82
2018-05-13T11:11:43.274Z,26.72
2018-05-13T11:14:12.252Z,25.95
2018-05-13T11:16:41.304Z,25.87
2018-05-13T11:19:10.621Z,25.39
2018-05-13T11:21:39.711Z,24.94
2018-05-13T11:24:08.785Z,25.69
2018-05-13T11:26:37.986Z,25.18
2018-05-13T11:29:07.184Z,25.08
2018-05-13T11:31:36.697Z,24.95
2018-05-13T11:34:05.898Z,24.49
2018-05-13T11:36:35.195Z,25.40
2018-05-13T11:39:05.102Z,25.37
2018-05-13T11:41:34.215Z,25.30
2018-05-13T11:44:03.565Z,25.25
2018-05-13T11:46:32.652Z,25.00
2018-05-13T11:49:01.802Z,25.22
2018-05-13T11:51:31.842Z,25.29
2018-05-13T11:54:01.247Z,25.40
2018-05-13T11:56:30.438Z,24.75
2018-05-13T11:58:59.801Z,25.92
2018-05-13T12:01:29.437Z,25.79
2018-05-13T12:03:58.557Z,25.65
2018-05-13T12:06:27.740Z,25.81
2018-05-13T12:08:56.948Z,25.84
2018-05-13T12:11:26.333Z,26.11
2018-05-13T12:13:55.739Z,26.52
2018-05-13T12:16:24.768Z,25.96
2018-05-13T12:18:54.013Z,25.79
2018-05-13T12:21:23.068Z,25.86
2018-05-13T12:23:52.335Z,26.02
2018-05-13T12:26:21.592Z,26.08
2018-05-13T12:28:50.879Z,25.93
2018-05-13T12:31:20.114Z,26.02
2018-05-13T12:33:49.429Z,25.87
2018-05-13T12:36:18.564Z,26.11
2018-05-13T12:38:47.983Z,26.05
2018-05-13T12:41:17.270Z,25.96
2018-05-13T12:43:46.552Z,26.09
2018-05-13T12:46:15.753Z,25.94
2018-05-13T12:48:44.771Z,25.52
2018-05-13T12:51:14.455Z,25.83
2018-05-13T12:53:44.184Z,25.85
2018-05-13T12:56:13.303Z,25.35
2018-05-13T12:58:42.684Z,25.54
2018-05-13T13:01:12.075Z,25.33
2018-05-13T13:03:41.105Z,25.66
2018-05-13T13:06:10.206Z,25.71
2018-05-13T13:08:39.308Z,25.16
2018-05-13T13:11:08.697Z,25.48
2018-05-13T13:13:38.007Z,25.20
2018-05-13T13:16:07.381Z,25.52
2018-05-13T13:18:36.649Z,25.53
2018-05-13T13:21:06.027Z,25.76
2018-05-13T13:23:35.234Z,25.98
2018-05-13T13:26:04.501Z,27.59
2018-05-13T13:28:33.606Z,27.36
2018-05-13T13:31:02.664Z,29.03
2018-05-13T13:33:31.747Z,28.84
2018-05-13T13:36:00.867Z,28.92
2018-05-13T13:38:30.084Z,29.68
2018-05-13T13:40:59.567Z,29.57
2018-05-13T13:43:29.071Z,28.27
2018-05-13T13:45:58.067Z,28.16
2018-05-13T13:48:27.052Z,28.72
2018-05-13T13:50:55.998Z,29.04
2018-05-13T13:53:25.281Z,28.55
2018-05-13T13:55:54.195Z,28.71
2018-05-13T13:58:23.304Z,29.02
2018-05-13T14:00:52.308Z,27.81
2018-05-13T14:03:21.392Z,28.21
2018-05-13T14:05:50.405Z,29.03
2018-05-13T14:08:19.555Z,30.13
2018-05-13T14:10:48.662Z,28.61
2018-05-13T14:13:17.954Z,28.47
2018-05-13T14:15:47.105Z,29.26
2018-05-13T14:18:16.264Z,28.91
2018-05-13T14:20:45.460Z,27.87
2018-05-13T14:23:14.736Z,28.64
2018-05-13T14:25:43.900Z,28.32
2018-05-13T14:28:13.219Z,29.75
2018-05-13T14:30:42.404Z,29.64
2018-05-13T14:33:11.445Z,29.46
2018-05-13T14:35:40.592Z,30.12
2018-05-13T14:38:09.830Z,28.57
2018-05-13T14:40:39.104Z,29.64
2018-05-13T14:43:08.521Z,29.87
2018-05-13T14:45:37.631Z,29.89
2018-05-13T14:48:06.964Z,30.08
2018-05-13T14:50:36.139Z,30.46
2018-05-13T14:53:05.216Z,28.66
2018-05-13T14:55:34.545Z,30.14
2018-05-13T14:58:03.784Z,30.23
2018-05-13T15:00:32.840Z,30.17
2018-05-13T15:03:02.169Z,29.98
2018-05-13T15:05:31.802Z,29.30
2018-05-13T15:08:00.943Z,28.93
2018-05-13T15:10:30.205Z,30.19
2018-05-13T15:12:59.412Z,30.17
2018-05-13T15:15:28.548Z,28.89
2018-05-13T15:17:58.093Z,29.77
2018-05-13T15:20:27.216Z,29.79
2018-05-13T15:22:56.376Z,29.02
2018-05-13T15:25:25.600Z,28.73
2018-05-13T15:27:55.000Z,28.90
2018-05-13T15:30:24.074Z,29.97
2018-05-13T15:32:53.291Z,29.53
2018-05-13T15:35:22.615Z,29.47
2018-05-13T15:37:51.731Z,28.63
2018-05-13T15:40:20.866Z,29.50
2018-05-13T15:42:50.042Z,30.01
2018-05-13T15:45:19.298Z,29.62
2018-05-13T15:47:48.585Z,28.95
2018-05-13T15:50:17.688Z,28.93
2018-05-13T15:52:46.737Z,29.42
2018-05-13T15:55:15.811Z,29.99
2018-05-13T15:57:45.071Z,28.32
2018-05-13T16:00:14.280Z,28.74
2018-05-13T16:02:43.448Z,29.51
2018-05-13T16:05:12.845Z,28.83
2018-05-13T16:07:42.026Z,28.87
2018-05-13T16:10:11.636Z,29.18
2018-05-13T16:12:40.849Z,28.57
2018-05-13T16:15:09.926Z,27.58
2018-05-13T16:17:39.326Z,28.08
2018-05-13T16:20:08.544Z,27.61
2018-05-13T16:22:37.926Z,28.20
2018-05-13T16:25:07.084Z,26.97
2018-05-13T16:27:36.289Z,26.09
2018-05-13T16:30:05.758Z,26.11
2018-05-13T16:32:35.032Z,26.89
2018-05-13T16:35:04.576Z,26.32
2018-05-13T16:37:34.236Z,25.50
2018-05-13T16:40:03.958Z,26.64
2018-05-13T16:42:33.934Z,25.73
2018-05-13T16:45:03.412Z,25.56
2018-05-13T16:47:32.680Z,25.81
2018-05-13T16:50:01.843Z,25.85
2018-05-13T16:52:31.015Z,25.35
2018-05-13T16:55:00.324Z,25.26
2018-05-13T16:57:29.489Z,24.76
2018-05-13T16:59:58.376Z,23.13
2018-05-13T17:02:27.301Z,22.35
2018-05-13T17:04:56.124Z,21.74
2018-05-13T17:07:25.020Z,21.36
2018-05-13T17:09:53.716Z,21.36
2018-05-13T17:12:22.646Z,21.11
2018-05-13T17:14:51.564Z,20.66
2018-05-13T17:17:20.293Z,20.55
2018-05-13T17:19:50.215Z,20.67
2018-05-13T17:22:18.921Z,20.28
2018-05-13T17:24:47.620Z,20.14
2018-05-13T17:27:16.304Z,19.97
2018-05-13T17:29:45.305Z,19.91
2018-05-13T17:32:14.180Z,19.76
2018-05-13T17:34:43.072Z,19.76
2018-05-13T17:37:12.164Z,19.69
2018-05-13T17:39:41.274Z,19.61
2018-05-13T17:42:10.166Z,19.49
2018-05-13T17:44:39.232Z,19.50
2018-05-13T17:47:08.554Z,19.41
2018-05-13T17:49:37.640Z,19.34
2018-05-13T17:52:06.774Z,19.43
2018-05-13T17:54:35.652Z,19.41
2018-05-13T17:57:04.751Z,19.23
2018-05-13T17:59:33.661Z,19.20
2018-05-13T18:02:02.868Z,19.15
2018-05-13T18:04:32.004Z,19.14
2018-05-13T18:07:01.029Z,18.89
2018-05-13T18:09:30.188Z,18.91
2018-05-13T18:11:59.104Z,18.82
2018-05-13T18:14:27.925Z,18.81
2018-05-13T18:16:56.748Z,18.83
2018-05-13T18:19:25.848Z,18.65
2018-05-13T18:21:54.877Z,18.67
2018-05-13T18:24:24.025Z,18.49
2018-05-13T18:26:53.132Z,18.40
2018-05-13T18:29:22.072Z,18.40
2018-05-13T18:31:51.123Z,18.43
2018-05-13T18:34:19.931Z,18.46
2018-05-13T18:36:49.053Z,18.72
2018-05-13T18:39:18.074Z,18.93
2018-05-13T18:41:47.174Z,19.08
2018-05-13T18:44:16.076Z,19.18
2018-05-13T18:46:44.887Z,18.72
2018-05-13T18:49:13.713Z,18.93
2018-05-13T18:51:42.637Z,18.89
2018-05-13T18:54:11.869Z,18.81
2018-05-13T18:56:40.839Z,18.51
2018-05-13T18:59:10.102Z,18.23
2018-05-13T19:01:39.232Z,18.26
2018-05-13T19:04:08.294Z,17.96
2018-05-13T19:06:37.076Z,17.85
2018-05-13T19:09:05.960Z,18.03
2018-05-13T19:11:34.720Z,17.82
2018-05-13T19:14:03.621Z,17.85
2018-05-13T19:16:32.556Z,17.85
2018-05-13T19:19:01.485Z,17.82
2018-05-13T19:21:30.221Z,17.77
2018-05-13T19:23:59.081Z,17.62
2018-05-13T19:26:27.871Z,17.79
2018-05-13T19:28:56.676Z,17.86
2018-05-13T19:31:25.468Z,17.86
2018-05-13T19:33:54.272Z,18.37
2018-05-13T19:36:23.262Z,18.52
2018-05-13T19:38:52.239Z,18.60
2018-05-13T19:41:21.368Z,18.50
2018-05-13T19:43:50.256Z,18.39
2018-05-13T19:46:19.274Z,17.87
2018-05-13T19:48:48.111Z,17.46
2018-05-13T19:51:17.190Z,17.25
2018-05-13T19:53:46.187Z,17.49
2018-05-13T19:56:15.024Z,17.24
2018-05-13T19:58:44.213Z,17.46
2018-05-13T20:01:13.358Z,17.05
2018-05-13T20:03:42.353Z,16.99
2018-05-13T20:06:11.276Z,16.91
2018-05-13T20:08:40.095Z,16.86
2018-05-13T20:11:09.080Z,16.66
2018-05-13T20:13:37.913Z,16.53
2018-05-13T20:16:06.726Z,16.35
2018-05-13T20:18:35.822Z,16.73
2018-05-13T20:21:04.917Z,16.65
2018-05-13T20:23:34.043Z,16.42
2018-05-13T20:26:02.850Z,16.32
2018-05-13T20:28:31.852Z,16.29
2018-05-13T20:31:00.710Z,16.23
2018-05-13T20:33:29.596Z,16.08
2018-05-13T20:35:58.827Z,16.06
2018-05-13T20:38:27.734Z,16.00
2018-05-13T20:40:56.748Z,15.99
2018-05-13T20:43:25.729Z,16.10
2018-05-13T20:45:54.629Z,16.13
2018-05-13T20:48:23.590Z,16.35
2018-05-13T20:50:52.723Z,16.36
2018-05-13T20:53:21.488Z,16.54
2018-05-13T20:55:50.408Z,16.45
2018-05-13T20:58:19.367Z,16.73
2018-05-13T21:00:48.324Z,16.94
2018-05-13T21:03:17.222Z,16.86
2018-05-13T21:05:46.208Z,17.54
2018-05-13T21:08:15.231Z,17.23
2018-05-13T21:10:44.048Z,17.17
2018-05-13T21:13:12.953Z,17.29
2018-05-13T21:15:41.839Z,17.18
2018-05-13T21:18:11.453Z,16.98
2018-05-13T21:20:40.204Z,16.67
2018-05-13T21:23:09.312Z,16.60
2018-05-13T21:25:38.304Z,16.40
2018-05-13T21:28:07.149Z,16.23
2018-05-13T21:30:36.100Z,16.77
2018-05-13T21:33:05.414Z,16.90
2018-05-13T21:35:34.530Z,16.60
2018-05-13T21:38:03.568Z,16.40
2018-05-13T21:40:32.536Z,16.26
2018-05-13T21:43:01.464Z,16.50
2018-05-13T21:45:30.591Z,16.58
2018-05-13T21:47:59.540Z,16.41
2018-05-13T21:50:28.474Z,16.31
2018-05-13T21:52:57.299Z,16.44
2018-05-13T21:55:26.250Z,16.35
2018-05-13T21:57:55.316Z,16.27
2018-05-13T22:00:24.289Z,16.25
2018-05-13T22:02:53.069Z,16.25
2018-05-13T22:05:21.898Z,16.15
2018-05-13T22:07:50.885Z,16.02
2018-05-13T22:10:19.824Z,16.01
2018-05-13T22:12:48.913Z,16.01
2018-05-13T22:15:17.736Z,16.08
2018-05-13T22:17:46.664Z,16.07
2018-05-13T22:20:15.560Z,16.01
2018-05-13T22:22:44.697Z,16.03
2018-05-13T22:25:13.560Z,16.21
2018-05-13T22:27:42.486Z,16.06
2018-05-13T22:30:11.643Z,15.97
2018-05-13T22:32:40.575Z,16.19
2018-05-13T22:35:09.504Z,16.09
2018-05-13T22:37:38.604Z,16.79
2018-05-13T22:40:07.602Z,17.08
2018-05-13T22:42:36.529Z,17.51
2018-05-13T22:45:05.586Z,17.48
2018-05-13T22:47:34.481Z,16.68
2018-05-13T22:50:03.632Z,16.42
2018-05-13T22:52:32.978Z,16.45
2018-05-13T22:55:01.760Z,16.79
2018-05-13T22:57:30.907Z,16.68
2018-05-13T22:59:59.700Z,16.37
2018-05-13T23:02:28.537Z,16.23
2018-05-13T23:04:57.512Z,16.10
2018-05-13T23:07:26.464Z,16.35
2018-05-13T23:09:55.714Z,16.09
2018-05-13T23:12:24.994Z,16.21
2018-05-13T23:14:53.966Z,16.13
2018-05-13T23:17:23.111Z,16.05
2018-05-13T23:19:52.584Z,16.98
2018-05-13T23:22:32.928Z,17.20
2018-05-13T23:25:02.433Z,16.61
2018-05-13T23:27:32.988Z,16.53
2018-05-13T23:30:02.571Z,16.92
2018-05-13T23:32:31.564Z,17.10
2018-05-13T23:35:00.763Z,17.14
2018-05-13T23:37:29.797Z,16.77
2018-05-13T23:39:58.894Z,16.82
2018-05-13T23:42:28.105Z,16.70
2018-05-13T23:44:57.107Z,16.51
2018-05-13T23:47:26.214Z,16.43
2018-05-13T23:49:55.272Z,16.58
2018-05-13T23:52:24.329Z,16.70
2018-05-13T23:54:53.500Z,16.58
2018-05-13T23:57:22.665Z,16.57
2018-05-13T23:59:52.198Z,16.54
